sensor_id;sensor_type;location;lat;lon;timestamp;temperature;humidity
21616;DHT22;10970;48.714;9.584;2023-07-20T17:55:29;26.00;99.90
21616;DHT22;10970;48.714;9.584;2023-07-20T17:57:54;24.50;99.90
21616;DHT22;10970;48.714;9.584;2023-07-20T18:00:20;24.30;99.90
21616;DHT22;10970;48.714;9.584;2023-07-20T18:02:46;24.20;99.90
21616;DHT22;10970;48.714;9.584;2023-07-20T18:05:12;24.00;99.90
21616;DHT22;10970;48.714;9.584;2023-07-20T18:07:38;23.90;99.90
21616;DHT22;10970;48.714;9.584;2023-07-20T18:10:06;23.80;99.90
21616;DHT22;10970;48.714;9.584;2023-07-20T18:12:32;23.60;99.90
21616;DHT22;10970;48.714;9.584;2023-07-20T18:14:57;23.50;99.90
21616;DHT22;10970;48.714;9.584;2023-07-20T18:17:23;23.40;99.90
21616;DHT22;10970;48.714;9.584;2023-07-20T18:19:49;23.30;99.90
21616;DHT22;10970;48.714;9.584;2023-07-20T18:22:15;23.20;99.90
21616;DHT22;10970;48.714;9.584;2023-07-20T18:24:41;23.00;99.90
21616;DHT22;10970;48.714;9.584;2023-07-20T18:27:07;22.90;99.90
21616;DHT22;10970;48.714;9.584;2023-07-20T18:29:33;22.80;99.90
21616;DHT22;10970;48.714;9.584;2023-07-20T18:31:59;22.70;99.90
21616;DHT22;10970;48.714;9.584;2023-07-20T18:34:25;22.70;99.90
21616;DHT22;10970;48.714;9.584;2023-07-20T18:36:51;22.60;99.90
21616;DHT22;10970;48.714;9.584;2023-07-20T18:39:17;22.60;99.90
21616;DHT22;10970;48.714;9.584;2023-07-20T18:41:42;22.50;99.90
21616;DHT22;10970;48.714;9.584;2023-07-20T18:44:08;22.40;99.90
21616;DHT22;10970;48.714;9.584;2023-07-20T18:46:34;22.40;99.90
21616;DHT22;10970;48.714;9.584;2023-07-20T18:49:00;22.30;99.90
21616;DHT22;10970;48.714;9.584;2023-07-20T18:51:26;22.20;99.90
21616;DHT22;10970;48.714;9.584;2023-07-20T18:53:52;22.10;99.90
21616;DHT22;10970;48.714;9.584;2023-07-20T18:56:20;21.90;99.90
21616;DHT22;10970;48.714;9.584;2023-07-20T18:58:46;21.70;99.90
21616;DHT22;10970;48.714;9.584;2023-07-20T19:01:12;21.60;99.90
21616;DHT22;10970;48.714;9.584;2023-07-20T19:03:37;21.50;99.90
21616;DHT22;10970;48.714;9.584;2023-07-20T19:06:03;21.30;99.90
21616;DHT22;10970;48.714;9.584;2023-07-20T19:08:30;21.20;99.90
21616;DHT22;10970;48.714;9.584;2023-07-20T19:10:59;21.00;99.90
21616;DHT22;10970;48.714;9.584;2023-07-20T19:13:26;20.90;99.90
21616;DHT22;10970;48.714;9.584;2023-07-20T19:15:52;20.90;99.90
21616;DHT22;10970;48.714;9.584;2023-07-20T19:18:22;20.80;99.90
21616;DHT22;10970;48.714;9.584;2023-07-20T19:20:47;20.70;99.90
21616;DHT22;10970;48.714;9.584;2023-07-20T19:23:13;20.60;99.90
21616;DHT22;10970;48.714;9.584;2023-07-20T19:25:39;20.50;99.90
21616;DHT22;10970;48.714;9.584;2023-07-20T19:28:05;20.40;99.90
21616;DHT22;10970;48.714;9.584;2023-07-20T19:30:30;20.30;99.90
21616;DHT22;10970;48.714;9.584;2023-07-20T19:32:56;20.20;99.90
21616;DHT22;10970;48.714;9.584;2023-07-20T19:35:22;20.10;99.90
21616;DHT22;10970;48.714;9.584;2023-07-20T19:37:48;20.00;99.90
21616;DHT22;10970;48.714;9.584;2023-07-20T19:40:14;19.90;99.90
21616;DHT22;10970;48.714;9.584;2023-07-20T19:42:39;19.80;99.90
21616;DHT22;10970;48.714;9.584;2023-07-20T19:45:06;19.70;99.90
21616;DHT22;10970;48.714;9.584;2023-07-20T19:47:31;19.60;99.90
21616;DHT22;10970;48.714;9.584;2023-07-20T19:49:57;19.50;99.90
21616;DHT22;10970;48.714;9.584;2023-07-20T19:52:23;19.50;99.90
21616;DHT22;10970;48.714;9.584;2023-07-20T19:54:49;19.40;99.90
21616;DHT22;10970;48.714;9.584;2023-07-20T19:57:14;19.30;99.90
21616;DHT22;10970;48.714;9.584;2023-07-20T19:59:40;19.30;99.90
21616;DHT22;10970;48.714;9.584;2023-07-20T20:02:06;19.20;99.90
21616;DHT22;10970;48.714;9.584;2023-07-20T20:04:32;19.10;99.90
21616;DHT22;10970;48.714;9.584;2023-07-20T20:06:57;19.10;99.90
21616;DHT22;10970;48.714;9.584;2023-07-20T20:09:25;18.90;99.90
21616;DHT22;10970;48.714;9.584;2023-07-20T20:11:51;18.90;99.90
21616;DHT22;10970;48.714;9.584;2023-07-20T20:14:16;18.80;99.90
21616;DHT22;10970;48.714;9.584;2023-07-20T20:16:43;18.80;99.90
21616;DHT22;10970;48.714;9.584;2023-07-20T20:19:09;18.70;99.90
21616;DHT22;10970;48.714;9.584;2023-07-20T20:21:36;18.60;99.90
21616;DHT22;10970;48.714;9.584;2023-07-20T20:24:02;18.60;99.90
21616;DHT22;10970;48.714;9.584;2023-07-20T20:26:28;18.50;99.90
21616;DHT22;10970;48.714;9.584;2023-07-20T20:28:54;18.50;99.90
21616;DHT22;10970;48.714;9.584;2023-07-20T20:31:21;18.40;99.90
21616;DHT22;10970;48.714;9.584;2023-07-20T20:33:46;18.30;99.90
21616;DHT22;10970;48.714;9.584;2023-07-20T20:36:13;18.20;99.90
21616;DHT22;10970;48.714;9.584;2023-07-20T20:38:41;18.20;99.90
21616;DHT22;10970;48.714;9.584;2023-07-20T20:41:07;18.20;99.90
21616;DHT22;10970;48.714;9.584;2023-07-20T20:43:33;18.20;99.90
21616;DHT22;10970;48.714;9.584;2023-07-20T20:46:05;18.20;99.90
21616;DHT22;10970;48.714;9.584;2023-07-20T20:48:34;18.10;99.90
21616;DHT22;10970;48.714;9.584;2023-07-20T20:51:03;18.00;99.90
21616;DHT22;10970;48.714;9.584;2023-07-20T20:53:29;18.00;99.90
21616;DHT22;10970;48.714;9.584;2023-07-20T20:56:00;18.00;99.90
21616;DHT22;10970;48.714;9.584;2023-07-20T20:58:26;17.80;99.90
21616;DHT22;10970;48.714;9.584;2023-07-20T21:00:52;17.70;99.90
21616;DHT22;10970;48.714;9.584;2023-07-20T21:03:18;17.70;99.90
21616;DHT22;10970;48.714;9.584;2023-07-20T21:05:43;17.70;99.90
21616;DHT22;10970;48.714;9.584;2023-07-20T21:08:09;17.70;99.90
21616;DHT22;10970;48.714;9.584;2023-07-20T21:10:35;17.70;99.90
21616;DHT22;10970;48.714;9.584;2023-07-20T21:13:03;17.60;99.90
21616;DHT22;10970;48.714;9.584;2023-07-20T21:15:29;17.60;99.90
21616;DHT22;10970;48.714;9.584;2023-07-20T21:17:58;17.50;99.90
21616;DHT22;10970;48.714;9.584;2023-07-20T21:20:24;17.50;99.90
21616;DHT22;10970;48.714;9.584;2023-07-20T21:22:50;17.50;99.90
21616;DHT22;10970;48.714;9.584;2023-07-20T21:25:15;17.40;99.90
21616;DHT22;10970;48.714;9.584;2023-07-20T21:27:41;17.30;99.90
21616;DHT22;10970;48.714;9.584;2023-07-20T21:30:09;17.20;99.90
21616;DHT22;10970;48.714;9.584;2023-07-20T21:32:35;17.20;99.90
21616;DHT22;10970;48.714;9.584;2023-07-20T21:35:01;17.10;99.90
21616;DHT22;10970;48.714;9.584;2023-07-20T21:37:27;17.10;99.90
21616;DHT22;10970;48.714;9.584;2023-07-20T21:39:52;17.00;99.90
21616;DHT22;10970;48.714;9.584;2023-07-20T21:42:18;16.90;99.90
21616;DHT22;10970;48.714;9.584;2023-07-20T21:44:45;16.90;99.90
21616;DHT22;10970;48.714;9.584;2023-07-20T21:47:11;16.80;99.90
21616;DHT22;10970;48.714;9.584;2023-07-20T21:49:36;16.80;99.90
21616;DHT22;10970;48.714;9.584;2023-07-20T21:52:03;16.70;99.90
21616;DHT22;10970;48.714;9.584;2023-07-20T21:54:29;16.70;99.90
21616;DHT22;10970;48.714;9.584;2023-07-20T21:56:55;16.70;99.90
21616;DHT22;10970;48.714;9.584;2023-07-20T21:59:21;16.70;99.90
21616;DHT22;10970;48.714;9.584;2023-07-20T22:01:46;16.60;99.90
21616;DHT22;10970;48.714;9.584;2023-07-20T22:04:12;16.60;99.90
21616;DHT22;10970;48.714;9.584;2023-07-20T22:06:38;16.60;99.90
21616;DHT22;10970;48.714;9.584;2023-07-20T22:09:11;16.50;99.90
21616;DHT22;10970;48.714;9.584;2023-07-20T22:11:39;16.50;99.90
21616;DHT22;10970;48.714;9.584;2023-07-20T22:14:05;16.50;99.90
21616;DHT22;10970;48.714;9.584;2023-07-20T22:16:31;16.40;99.90
21616;DHT22;10970;48.714;9.584;2023-07-20T22:18:58;16.40;99.90
21616;DHT22;10970;48.714;9.584;2023-07-20T22:21:23;16.30;99.90
21616;DHT22;10970;48.714;9.584;2023-07-20T22:23:49;16.20;99.90
21616;DHT22;10970;48.714;9.584;2023-07-20T22:26:15;16.20;99.90
21616;DHT22;10970;48.714;9.584;2023-07-20T22:28:42;16.20;99.90
21616;DHT22;10970;48.714;9.584;2023-07-20T22:31:09;16.10;99.90
21616;DHT22;10970;48.714;9.584;2023-07-20T22:33:35;15.90;99.90
21616;DHT22;10970;48.714;9.584;2023-07-20T22:36:01;15.90;99.90
21616;DHT22;10970;48.714;9.584;2023-07-20T22:38:27;15.80;99.90
21616;DHT22;10970;48.714;9.584;2023-07-20T22:40:53;15.80;99.90
21616;DHT22;10970;48.714;9.584;2023-07-20T22:43:19;15.70;99.90
21616;DHT22;10970;48.714;9.584;2023-07-20T22:45:50;15.70;99.90
21616;DHT22;10970;48.714;9.584;2023-07-20T22:48:17;15.70;99.90
21616;DHT22;10970;48.714;9.584;2023-07-20T22:50:43;15.70;99.90
21616;DHT22;10970;48.714;9.584;2023-07-20T22:53:10;15.70;99.90
21616;DHT22;10970;48.714;9.584;2023-07-20T22:55:36;15.70;99.90
21616;DHT22;10970;48.714;9.584;2023-07-20T22:58:02;15.60;99.90
21616;DHT22;10970;48.714;9.584;2023-07-20T23:00:27;15.60;99.90
21616;DHT22;10970;48.714;9.584;2023-07-20T23:02:56;15.50;99.90
21616;DHT22;10970;48.714;9.584;2023-07-20T23:05:23;15.50;99.90
21616;DHT22;10970;48.714;9.584;2023-07-20T23:07:50;15.50;99.90
21616;DHT22;10970;48.714;9.584;2023-07-20T23:10:16;15.40;99.90
21616;DHT22;10970;48.714;9.584;2023-07-20T23:12:41;15.50;99.90
21616;DHT22;10970;48.714;9.584;2023-07-20T23:15:08;15.50;99.90
21616;DHT22;10970;48.714;9.584;2023-07-20T23:17:34;15.40;99.90
21616;DHT22;10970;48.714;9.584;2023-07-20T23:20:00;15.50;99.90
21616;DHT22;10970;48.714;9.584;2023-07-20T23:22:25;15.50;99.90
21616;DHT22;10970;48.714;9.584;2023-07-20T23:24:51;15.40;99.90
21616;DHT22;10970;48.714;9.584;2023-07-20T23:27:17;15.40;99.90
21616;DHT22;10970;48.714;9.584;2023-07-20T23:29:42;15.40;99.90
21616;DHT22;10970;48.714;9.584;2023-07-20T23:32:09;15.40;99.90
21616;DHT22;10970;48.714;9.584;2023-07-20T23:34:35;15.50;99.90
21616;DHT22;10970;48.714;9.584;2023-07-20T23:37:05;15.50;99.90
21616;DHT22;10970;48.714;9.584;2023-07-20T23:39:30;15.50;99.90
21616;DHT22;10970;48.714;9.584;2023-07-20T23:41:57;15.40;99.90
21616;DHT22;10970;48.714;9.584;2023-07-20T23:44:25;15.50;99.90
21616;DHT22;10970;48.714;9.584;2023-07-20T23:46:53;15.50;99.90
21616;DHT22;10970;48.714;9.584;2023-07-20T23:49:19;15.50;99.90
21616;DHT22;10970;48.714;9.584;2023-07-20T23:51:47;15.40;99.90
21616;DHT22;10970;48.714;9.584;2023-07-20T23:54:13;15.30;99.90
21616;DHT22;10970;48.714;9.584;2023-07-20T23:56:39;15.30;99.90
21616;DHT22;10970;48.714;9.584;2023-07-20T23:59:05;15.20;99.90
